sensor_id;sensor_type;location;lat;lon;timestamp;pressure;altitude;pressure_sealevel;temperature
12126;BMP180;6126;57.908;16.490;2022-09-17T00:01:04;99272.63;;;11.36
12126;BMP180;6126;57.908;16.490;2022-09-17T00:03:30;99276.38;;;11.32
12126;BMP180;6126;57.908;16.490;2022-09-17T00:08:26;99290.16;;;11.21
12126;BMP180;6126;57.908;16.490;2022-09-17T00:10:52;99290.28;;;11.20
12126;BMP180;6126;57.908;16.490;2022-09-17T00:13:18;99289.56;;;11.18
12126;BMP180;6126;57.908;16.490;2022-09-17T00:15:46;99283.69;;;11.14
12126;BMP180;6126;57.908;16.490;2022-09-17T00:18:14;99288.06;;;11.14
12126;BMP180;6126;57.908;16.490;2022-09-17T00:20:43;99286.00;;;11.07
12126;BMP180;6126;57.908;16.490;2022-09-17T00:23:10;99286.09;;;11.05
12126;BMP180;6126;57.908;16.490;2022-09-17T00:25:44;99290.91;;;10.99
12126;BMP180;6126;57.908;16.490;2022-09-17T00:28:14;99297.47;;;10.92
12126;BMP180;6126;57.908;16.490;2022-09-17T00:30:45;99297.66;;;10.89
12126;BMP180;6126;57.908;16.490;2022-09-17T00:33:14;99298.06;;;10.83
12126;BMP180;6126;57.908;16.490;2022-09-17T00:35:41;99292.31;;;10.78
12126;BMP180;6126;57.908;16.490;2022-09-17T00:38:08;99294.28;;;10.75
12126;BMP180;6126;57.908;16.490;2022-09-17T00:40:34;99295.31;;;10.72
12126;BMP180;6126;57.908;16.490;2022-09-17T00:43:00;99298.88;;;10.71
12126;BMP180;6126;57.908;16.490;2022-09-17T00:45:27;99296.25;;;10.71
12126;BMP180;6126;57.908;16.490;2022-09-17T00:48:00;99305.88;;;10.71
12126;BMP180;6126;57.908;16.490;2022-09-17T00:50:40;99312.22;;;10.67
12126;BMP180;6126;57.908;16.490;2022-09-17T00:53:20;99314.50;;;10.59
12126;BMP180;6126;57.908;16.490;2022-09-17T00:56:08;99317.22;;;10.57
12126;BMP180;6126;57.908;16.490;2022-09-17T00:58:35;99322.44;;;10.57
12126;BMP180;6126;57.908;16.490;2022-09-17T01:01:02;99318.91;;;10.58
12126;BMP180;6126;57.908;16.490;2022-09-17T01:03:29;99322.25;;;10.60
12126;BMP180;6126;57.908;16.490;2022-09-17T01:17:12;99328.78;;;10.53
12126;BMP180;6126;57.908;16.490;2022-09-17T01:31:52;99337.03;;;10.47
12126;BMP180;6126;57.908;16.490;2022-09-17T01:34:53;99333.66;;;10.46
12126;BMP180;6126;57.908;16.490;2022-09-17T01:37:30;99330.50;;;10.41
12126;BMP180;6126;57.908;16.490;2022-09-17T01:40:36;99334.97;;;10.39
12126;BMP180;6126;57.908;16.490;2022-09-17T01:43:56;99327.16;;;10.39
12126;BMP180;6126;57.908;16.490;2022-09-17T01:46:48;99338.00;;;10.33
12126;BMP180;6126;57.908;16.490;2022-09-17T01:49:17;99327.84;;;10.28
12126;BMP180;6126;57.908;16.490;2022-09-17T01:51:47;99328.69;;;10.29
12126;BMP180;6126;57.908;16.490;2022-09-17T01:54:32;99326.44;;;10.23
12126;BMP180;6126;57.908;16.490;2022-09-17T01:59:48;99323.00;;;10.22
12126;BMP180;6126;57.908;16.490;2022-09-17T02:05:08;99329.81;;;10.25
12126;BMP180;6126;57.908;16.490;2022-09-17T02:07:43;99328.16;;;10.24
12126;BMP180;6126;57.908;16.490;2022-09-17T02:10:17;99326.28;;;10.26
12126;BMP180;6126;57.908;16.490;2022-09-17T02:13:13;99327.19;;;10.25
12126;BMP180;6126;57.908;16.490;2022-09-17T02:15:48;99334.78;;;10.16
12126;BMP180;6126;57.908;16.490;2022-09-17T02:18:36;99338.03;;;10.19
12126;BMP180;6126;57.908;16.490;2022-09-17T02:22:00;99330.41;;;10.16
12126;BMP180;6126;57.908;16.490;2022-09-17T02:24:11;99329.09;;;10.09
12126;BMP180;6126;57.908;16.490;2022-09-17T02:26:45;99330.97;;;10.07
12126;BMP180;6126;57.908;16.490;2022-09-17T02:29:30;99335.34;;;10.07
12126;BMP180;6126;57.908;16.490;2022-09-17T02:31:57;99335.47;;;10.05
12126;BMP180;6126;57.908;16.490;2022-09-17T02:34:24;99328.53;;;10.04
12126;BMP180;6126;57.908;16.490;2022-09-17T02:36:53;99336.75;;;9.98
12126;BMP180;6126;57.908;16.490;2022-09-17T02:39:19;99329.13;;;9.95
12126;BMP180;6126;57.908;16.490;2022-09-17T02:54:15;99344.22;;;9.77
12126;BMP180;6126;57.908;16.490;2022-09-17T03:03:00;99358.72;;;9.81
12126;BMP180;6126;57.908;16.490;2022-09-17T03:05:29;99357.06;;;9.80
12126;BMP180;6126;57.908;16.490;2022-09-17T03:07:56;99352.69;;;9.80
12126;BMP180;6126;57.908;16.490;2022-09-17T03:10:24;99355.28;;;9.80
12126;BMP180;6126;57.908;16.490;2022-09-17T03:12:53;99363.75;;;9.83
12126;BMP180;6126;57.908;16.490;2022-09-17T03:15:18;99362.47;;;9.77
12126;BMP180;6126;57.908;16.490;2022-09-17T03:17:44;99371.41;;;9.73
12126;BMP180;6126;57.908;16.490;2022-09-17T03:20:10;99362.63;;;9.74
12126;BMP180;6126;57.908;16.490;2022-09-17T03:22:36;99362.81;;;9.71
12126;BMP180;6126;57.908;16.490;2022-09-17T03:25:02;99363.66;;;9.71
12126;BMP180;6126;57.908;16.490;2022-09-17T03:27:28;99371.31;;;9.74
12126;BMP180;6126;57.908;16.490;2022-09-17T03:29:54;99371.31;;;9.74
12126;BMP180;6126;57.908;16.490;2022-09-17T03:32:20;99366.75;;;9.78
12126;BMP180;6126;57.908;16.490;2022-09-17T03:34:45;99370.28;;;9.77
12126;BMP180;6126;57.908;16.490;2022-09-17T03:37:12;99364.41;;;9.73
12126;BMP180;6126;57.908;16.490;2022-09-17T03:39:38;99373.25;;;9.71
12126;BMP180;6126;57.908;16.490;2022-09-17T03:42:05;99368.03;;;9.71
12126;BMP180;6126;57.908;16.490;2022-09-17T03:44:30;99372.34;;;9.72
12126;BMP180;6126;57.908;16.490;2022-09-17T03:46:56;99373.94;;;9.74
12126;BMP180;6126;57.908;16.490;2022-09-17T03:49:22;99378.13;;;9.77
12126;BMP180;6126;57.908;16.490;2022-09-17T03:51:48;99375.41;;;9.78
12126;BMP180;6126;57.908;16.490;2022-09-17T03:54:14;99379.59;;;9.81
12126;BMP180;6126;57.908;16.490;2022-09-17T03:56:40;99378.75;;;9.80
12126;BMP180;6126;57.908;16.490;2022-09-17T03:59:06;99372.72;;;9.80
12126;BMP180;6126;57.908;16.490;2022-09-17T04:01:32;99383.16;;;9.80
12126;BMP180;6126;57.908;16.490;2022-09-17T04:03:58;99389.28;;;9.79
12126;BMP180;6126;57.908;16.490;2022-09-17T04:06:24;99394.69;;;9.76
12126;BMP180;6126;57.908;16.490;2022-09-17T04:08:50;99397.28;;;9.76
12126;BMP180;6126;57.908;16.490;2022-09-17T04:11:15;99393.78;;;9.77
12126;BMP180;6126;57.908;16.490;2022-09-17T04:13:41;99392.06;;;9.76
12126;BMP180;6126;57.908;16.490;2022-09-17T04:16:07;99380.81;;;9.75
12126;BMP180;6126;57.908;16.490;2022-09-17T04:18:33;99385.94;;;9.77
12126;BMP180;6126;57.908;16.490;2022-09-17T04:20:59;99391.06;;;9.78
12126;BMP180;6126;57.908;16.490;2022-09-17T04:23:25;99383.16;;;9.80
12126;BMP180;6126;57.908;16.490;2022-09-17T04:25:51;99388.19;;;9.83
12126;BMP180;6126;57.908;16.490;2022-09-17T04:28:17;99382.75;;;9.85
12126;BMP180;6126;57.908;16.490;2022-09-17T04:30:43;99383.44;;;9.89
12126;BMP180;6126;57.908;16.490;2022-09-17T04:33:09;99388.47;;;9.92
12126;BMP180;6126;57.908;16.490;2022-09-17T04:35:35;99395.19;;;9.96
12126;BMP180;6126;57.908;16.490;2022-09-17T04:38:01;99384.56;;;9.99
12126;BMP180;6126;57.908;16.490;2022-09-17T04:40:27;99389.59;;;10.02
12126;BMP180;6126;57.908;16.490;2022-09-17T04:42:55;99391.94;;;10.06
12126;BMP180;6126;57.908;16.490;2022-09-17T04:45:22;99397.06;;;10.08
12126;BMP180;6126;57.908;16.490;2022-09-17T04:47:48;99396.13;;;10.09
12126;BMP180;6126;57.908;16.490;2022-09-17T04:50:20;99390.63;;;10.13
12126;BMP180;6126;57.908;16.490;2022-09-17T04:52:47;99407.00;;;10.15
12126;BMP180;6126;57.908;16.490;2022-09-17T04:55:14;99405.16;;;10.17
12126;BMP180;6126;57.908;16.490;2022-09-17T04:57:49;99406.81;;;10.18
12126;BMP180;6126;57.908;16.490;2022-09-17T05:00:17;99410.19;;;10.20
12126;BMP180;6126;57.908;16.490;2022-09-17T05:02:46;99409.25;;;10.21
12126;BMP180;6126;57.908;16.490;2022-09-17T05:05:14;99426.50;;;10.23
12126;BMP180;6126;57.908;16.490;2022-09-17T05:07:40;99410.84;;;10.23
12126;BMP180;6126;57.908;16.490;2022-09-17T05:10:10;99415.03;;;10.26
12126;BMP180;6126;57.908;16.490;2022-09-17T05:12:38;99413.25;;;10.26
12126;BMP180;6126;57.908;16.490;2022-09-17T05:15:05;99413.34;;;10.25
12126;BMP180;6126;57.908;16.490;2022-09-17T05:17:31;99407.28;;;10.24
12126;BMP180;6126;57.908;16.490;2022-09-17T05:19:57;99415.19;;;10.23
12126;BMP180;6126;57.908;16.490;2022-09-17T05:22:23;99412.72;;;10.21
12126;BMP180;6126;57.908;16.490;2022-09-17T05:24:49;99411.13;;;10.19
12126;BMP180;6126;57.908;16.490;2022-09-17T05:27:15;99408.50;;;10.19
12126;BMP180;6126;57.908;16.490;2022-09-17T05:29:41;99412.91;;;10.18
12126;BMP180;6126;57.908;16.490;2022-09-17T05:32:07;99410.38;;;10.17
12126;BMP180;6126;57.908;16.490;2022-09-17T05:34:32;99397.50;;;10.14
12126;BMP180;6126;57.908;16.490;2022-09-17T05:36:58;99405.25;;;10.16
12126;BMP180;6126;57.908;16.490;2022-09-17T05:39:24;99413.09;;;10.16
12126;BMP180;6126;57.908;16.490;2022-09-17T05:41:52;99426.03;;;10.17
12126;BMP180;6126;57.908;16.490;2022-09-17T05:44:19;99417.25;;;10.18
12126;BMP180;6126;57.908;16.490;2022-09-17T05:46:46;99418.75;;;10.22
12126;BMP180;6126;57.908;16.490;2022-09-17T05:49:13;99420.16;;;10.27
12126;BMP180;6126;57.908;16.490;2022-09-17T05:51:41;99433.69;;;10.34
12126;BMP180;6126;57.908;16.490;2022-09-17T05:54:08;99426.38;;;10.39
12126;BMP180;6126;57.908;16.490;2022-09-17T05:56:34;99423.47;;;10.43
12126;BMP180;6126;57.908;16.490;2022-09-17T05:59:00;99429.91;;;10.51
12126;BMP180;6126;57.908;16.490;2022-09-17T06:01:26;99434.00;;;10.55
12126;BMP180;6126;57.908;16.490;2022-09-17T06:03:53;99419.44;;;10.65
12126;BMP180;6126;57.908;16.490;2022-09-17T06:06:19;99428.66;;;10.71
12126;BMP180;6126;57.908;16.490;2022-09-17T06:08:45;99418.66;;;10.77
12126;BMP180;6126;57.908;16.490;2022-09-17T06:11:12;99420.03;;;10.82
12126;BMP180;6126;57.908;16.490;2022-09-17T06:13:37;99424.97;;;10.87
12126;BMP180;6126;57.908;16.490;2022-09-17T06:16:03;99420.28;;;10.92
12126;BMP180;6126;57.908;16.490;2022-09-17T06:18:30;99426.81;;;10.99
12126;BMP180;6126;57.908;16.490;2022-09-17T06:21:02;99424.91;;;11.01
12126;BMP180;6126;57.908;16.490;2022-09-17T06:23:32;99429.00;;;11.05
12126;BMP180;6126;57.908;16.490;2022-09-17T06:26:04;99422.53;;;11.10
12126;BMP180;6126;57.908;16.490;2022-09-17T06:28:31;99421.50;;;11.12
12126;BMP180;6126;57.908;16.490;2022-09-17T06:31:05;99420.56;;;11.13
12126;BMP180;6126;57.908;16.490;2022-09-17T06:33:32;99425.50;;;11.18
12126;BMP180;6126;57.908;16.490;2022-09-17T06:36:01;99426.88;;;11.23
12126;BMP180;6126;57.908;16.490;2022-09-17T06:38:28;99424.88;;;11.27
12126;BMP180;6126;57.908;16.490;2022-09-17T06:40:55;99431.59;;;11.31
12126;BMP180;6126;57.908;16.490;2022-09-17T06:43:22;99434.75;;;11.36
12126;BMP180;6126;57.908;16.490;2022-09-17T06:46:06;99431.75;;;11.41
12126;BMP180;6126;57.908;16.490;2022-09-17T06:48:35;99433.97;;;11.47
12126;BMP180;6126;57.908;16.490;2022-09-17T06:51:07;99435.44;;;11.51
12126;BMP180;6126;57.908;16.490;2022-09-17T06:53:35;99443.00;;;11.56
12126;BMP180;6126;57.908;16.490;2022-09-17T06:56:03;99442.47;;;11.63
12126;BMP180;6126;57.908;16.490;2022-09-17T06:58:30;99439.47;;;11.69
12126;BMP180;6126;57.908;16.490;2022-09-17T07:01:00;99439.34;;;11.70
12126;BMP180;6126;57.908;16.490;2022-09-17T07:03:28;99437.38;;;11.74
12126;BMP180;6126;57.908;16.490;2022-09-17T07:05:54;99441.75;;;11.73
12126;BMP180;6126;57.908;16.490;2022-09-17T07:08:20;99442.47;;;11.75
12126;BMP180;6126;57.908;16.490;2022-09-17T07:10:46;99434.53;;;11.77
12126;BMP180;6126;57.908;16.490;2022-09-17T07:13:12;99449.06;;;11.81
12126;BMP180;6126;57.908;16.490;2022-09-17T07:15:38;99434.66;;;11.88
12126;BMP180;6126;57.908;16.490;2022-09-17T07:18:09;99433.25;;;11.95
12126;BMP180;6126;57.908;16.490;2022-09-17T07:20:36;99439.75;;;12.01
12126;BMP180;6126;57.908;16.490;2022-09-17T07:23:02;99442.81;;;12.08
12126;BMP180;6126;57.908;16.490;2022-09-17T07:25:27;99429.50;;;12.11
12126;BMP180;6126;57.908;16.490;2022-09-17T07:27:54;99430.97;;;12.15
12126;BMP180;6126;57.908;16.490;2022-09-17T07:30:21;99432.44;;;12.19
12126;BMP180;6126;57.908;16.490;2022-09-17T07:32:47;99444.25;;;12.24
12126;BMP180;6126;57.908;16.490;2022-09-17T07:35:13;99440.06;;;12.22
12126;BMP180;6126;57.908;16.490;2022-09-17T07:37:38;99442.47;;;12.25
12126;BMP180;6126;57.908;16.490;2022-09-17T07:40:05;99439.34;;;12.32
12126;BMP180;6126;57.908;16.490;2022-09-17T07:42:32;99428.31;;;12.39
12126;BMP180;6126;57.908;16.490;2022-09-17T07:44:58;99437.63;;;12.43
12126;BMP180;6126;57.908;16.490;2022-09-17T07:47:24;99424.53;;;12.43
12126;BMP180;6126;57.908;16.490;2022-09-17T07:49:50;99431.25;;;12.47
12126;BMP180;6126;57.908;16.490;2022-09-17T07:52:16;99430.19;;;12.50
12126;BMP180;6126;57.908;16.490;2022-09-17T07:54:42;99440.31;;;12.54
12126;BMP180;6126;57.908;16.490;2022-09-17T07:57:07;99437.50;;;12.57
12126;BMP180;6126;57.908;16.490;2022-09-17T07:59:33;99444.19;;;12.61
12126;BMP180;6126;57.908;16.490;2022-09-17T08:01:59;99434.22;;;12.66
12126;BMP180;6126;57.908;16.490;2022-09-17T08:04:25;99446.50;;;12.78
12126;BMP180;6126;57.908;16.490;2022-09-17T08:06:51;99444.03;;;12.87
12126;BMP180;6126;57.908;16.490;2022-09-17T08:09:17;99442.88;;;12.91
12126;BMP180;6126;57.908;16.490;2022-09-17T08:11:43;99445.78;;;12.99
12126;BMP180;6126;57.908;16.490;2022-09-17T08:14:12;99450.47;;;13.06
12126;BMP180;6126;57.908;16.490;2022-09-17T08:16:39;99441.75;;;13.06
12126;BMP180;6126;57.908;16.490;2022-09-17T08:19:05;99446.69;;;13.10
12126;BMP180;6126;57.908;16.490;2022-09-17T08:21:31;99441.72;;;13.18
12126;BMP180;6126;57.908;16.490;2022-09-17T08:23:58;99442.00;;;13.26
12126;BMP180;6126;57.908;16.490;2022-09-17T08:26:24;99451.09;;;13.33
12126;BMP180;6126;57.908;16.490;2022-09-17T08:28:52;99450.41;;;13.42
12126;BMP180;6126;57.908;16.490;2022-09-17T08:31:25;99453.28;;;13.50
12126;BMP180;6126;57.908;16.490;2022-09-17T08:33:53;99457.47;;;13.52
12126;BMP180;6126;57.908;16.490;2022-09-17T08:36:19;99453.03;;;13.42
12126;BMP180;6126;57.908;16.490;2022-09-17T08:38:50;99453.34;;;13.37
12126;BMP180;6126;57.908;16.490;2022-09-17T08:41:47;99452.09;;;13.43
12126;BMP180;6126;57.908;16.490;2022-09-17T08:44:53;99458.53;;;13.50
12126;BMP180;6126;57.908;16.490;2022-09-17T08:47:36;99460.81;;;13.54
12126;BMP180;6126;57.908;16.490;2022-09-17T08:50:26;99462.41;;;13.56
12126;BMP180;6126;57.908;16.490;2022-09-17T08:56:26;99462.91;;;13.72
12126;BMP180;6126;57.908;16.490;2022-09-17T08:59:27;99456.13;;;13.81
12126;BMP180;6126;57.908;16.490;2022-09-17T09:02:27;99461.53;;;13.90
12126;BMP180;6126;57.908;16.490;2022-09-17T09:05:19;99468.13;;;13.95
12126;BMP180;6126;57.908;16.490;2022-09-17T09:08:19;99463.09;;;13.92
12126;BMP180;6126;57.908;16.490;2022-09-17T09:10:54;99472.75;;;13.92
12126;BMP180;6126;57.908;16.490;2022-09-17T09:13:27;99470.63;;;13.97
12126;BMP180;6126;57.908;16.490;2022-09-17T09:16:09;99465.78;;;14.03
12126;BMP180;6126;57.908;16.490;2022-09-17T09:18:40;99459.94;;;14.11
12126;BMP180;6126;57.908;16.490;2022-09-17T09:24:23;99467.59;;;14.24
12126;BMP180;6126;57.908;16.490;2022-09-17T09:27:28;99463.31;;;14.23
12126;BMP180;6126;57.908;16.490;2022-09-17T09:30:12;99468.31;;;14.26
12126;BMP180;6126;57.908;16.490;2022-09-17T09:33:02;99462.69;;;14.31
12126;BMP180;6126;57.908;16.490;2022-09-17T09:35:34;99457.81;;;14.37
12126;BMP180;6126;57.908;16.490;2022-09-17T09:38:28;99462.22;;;14.48
12126;BMP180;6126;57.908;16.490;2022-09-17T09:41:25;99462.31;;;14.57
12126;BMP180;6126;57.908;16.490;2022-09-17T09:44:11;99472.38;;;14.63
12126;BMP180;6126;57.908;16.490;2022-09-17T09:55:59;99455.50;;;14.87
12126;BMP180;6126;57.908;16.490;2022-09-17T09:58:39;99468.53;;;14.88
12126;BMP180;6126;57.908;16.490;2022-09-17T10:01:19;99459.94;;;14.76
12126;BMP180;6126;57.908;16.490;2022-09-17T10:03:47;99461.03;;;14.73
12126;BMP180;6126;57.908;16.490;2022-09-17T10:06:15;99463.97;;;14.79
12126;BMP180;6126;57.908;16.490;2022-09-17T10:11:25;99458.63;;;14.81
12126;BMP180;6126;57.908;16.490;2022-09-17T10:13:52;99457.66;;;14.82
12126;BMP180;6126;57.908;16.490;2022-09-17T10:16:23;99471.84;;;14.90
12126;BMP180;6126;57.908;16.490;2022-09-17T10:19:20;99459.03;;;15.08
12126;BMP180;6126;57.908;16.490;2022-09-17T10:21:52;99463.47;;;15.07
12126;BMP180;6126;57.908;16.490;2022-09-17T10:24:31;99462.03;;;15.03
12126;BMP180;6126;57.908;16.490;2022-09-17T10:27:06;99461.19;;;15.13
12126;BMP180;6126;57.908;16.490;2022-09-17T10:29:41;99468.72;;;15.18
12126;BMP180;6126;57.908;16.490;2022-09-17T10:32:18;99459.50;;;15.23
12126;BMP180;6126;57.908;16.490;2022-09-17T10:35:24;99467.19;;;15.46
12126;BMP180;6126;57.908;16.490;2022-09-17T10:37:52;99460.28;;;15.66
12126;BMP180;6126;57.908;16.490;2022-09-17T10:43:17;99462.34;;;15.62
12126;BMP180;6126;57.908;16.490;2022-09-17T10:45:57;99469.78;;;15.57
12126;BMP180;6126;57.908;16.490;2022-09-17T10:48:30;99470.28;;;15.51
12126;BMP180;6126;57.908;16.490;2022-09-17T10:50:58;99463.59;;;15.47
12126;BMP180;6126;57.908;16.490;2022-09-17T10:53:26;99470.56;;;15.48
12126;BMP180;6126;57.908;16.490;2022-09-17T10:59:08;99468.38;;;15.53
12126;BMP180;6126;57.908;16.490;2022-09-17T11:04:37;99471.16;;;15.72
12126;BMP180;6126;57.908;16.490;2022-09-17T11:07:32;99464.28;;;15.80
12126;BMP180;6126;57.908;16.490;2022-09-17T11:16:57;99452.59;;;16.34
12126;BMP180;6126;57.908;16.490;2022-09-17T11:19:48;99455.84;;;16.47
12126;BMP180;6126;57.908;16.490;2022-09-17T11:30:59;99446.41;;;16.83
12126;BMP180;6126;57.908;16.490;2022-09-17T11:36:27;99455.06;;;17.04
12126;BMP180;6126;57.908;16.490;2022-09-17T11:39:08;99459.91;;;17.08
12126;BMP180;6126;57.908;16.490;2022-09-17T11:41:42;99454.00;;;17.16
12126;BMP180;6126;57.908;16.490;2022-09-17T11:44:31;99458.03;;;17.20
12126;BMP180;6126;57.908;16.490;2022-09-17T11:47:13;99459.16;;;17.27
12126;BMP180;6126;57.908;16.490;2022-09-17T11:50:16;99453.06;;;17.35
12126;BMP180;6126;57.908;16.490;2022-09-17T11:56:01;99462.06;;;17.42
12126;BMP180;6126;57.908;16.490;2022-09-17T12:04:43;99468.22;;;17.43
12126;BMP180;6126;57.908;16.490;2022-09-17T12:12:31;99469.00;;;17.15
12126;BMP180;6126;57.908;16.490;2022-09-17T12:15:13;99477.19;;;17.22
12126;BMP180;6126;57.908;16.490;2022-09-17T12:18:19;99468.75;;;17.37
12126;BMP180;6126;57.908;16.490;2022-09-17T12:20:52;99466.94;;;17.28
12126;BMP180;6126;57.908;16.490;2022-09-17T12:23:43;99477.31;;;17.11
12126;BMP180;6126;57.908;16.490;2022-09-17T12:44:36;99470.63;;;17.07
12126;BMP180;6126;57.908;16.490;2022-09-17T12:53:29;99470.66;;;16.77
12126;BMP180;6126;57.908;16.490;2022-09-17T12:59:15;99471.25;;;16.90
12126;BMP180;6126;57.908;16.490;2022-09-17T13:01:54;99470.53;;;16.79
12126;BMP180;6126;57.908;16.490;2022-09-17T13:08:02;99481.59;;;16.64
12126;BMP180;6126;57.908;16.490;2022-09-17T13:24:39;99483.69;;;16.40
12126;BMP180;6126;57.908;16.490;2022-09-17T13:27:23;99479.50;;;16.37
12126;BMP180;6126;57.908;16.490;2022-09-17T13:40:34;99488.13;;;16.39
12126;BMP180;6126;57.908;16.490;2022-09-17T13:48:28;99498.88;;;16.27
12126;BMP180;6126;57.908;16.490;2022-09-17T13:50:55;99495.78;;;16.22
12126;BMP180;6126;57.908;16.490;2022-09-17T13:53:25;99510.91;;;16.20
12126;BMP180;6126;57.908;16.490;2022-09-17T13:55:58;99508.53;;;16.17
12126;BMP180;6126;57.908;16.490;2022-09-17T13:58:29;99506.97;;;16.15
12126;BMP180;6126;57.908;16.490;2022-09-17T14:19:48;99526.88;;;16.08
12126;BMP180;6126;57.908;16.490;2022-09-17T14:22:35;99528.66;;;16.07
12126;BMP180;6126;57.908;16.490;2022-09-17T14:25:01;99536.56;;;16.07
12126;BMP180;6126;57.908;16.490;2022-09-17T14:27:56;99533.50;;;16.03
12126;BMP180;6126;57.908;16.490;2022-09-17T14:30:30;99528.63;;;15.98
12126;BMP180;6126;57.908;16.490;2022-09-17T14:33:19;99529.97;;;15.93
12126;BMP180;6126;57.908;16.490;2022-09-17T14:36:15;99533.94;;;15.87
12126;BMP180;6126;57.908;16.490;2022-09-17T14:38:46;99540.41;;;15.83
12126;BMP180;6126;57.908;16.490;2022-09-17T14:44:07;99538.16;;;15.79
12126;BMP180;6126;57.908;16.490;2022-09-17T14:46:55;99538.28;;;15.77
12126;BMP180;6126;57.908;16.490;2022-09-17T14:49:29;99541.75;;;15.78
12126;BMP180;6126;57.908;16.490;2022-09-17T14:51:57;99544.38;;;15.78
12126;BMP180;6126;57.908;16.490;2022-09-17T14:54:29;99549.06;;;15.74
12126;BMP180;6126;57.908;16.490;2022-09-17T14:59:58;99551.09;;;15.71
12126;BMP180;6126;57.908;16.490;2022-09-17T15:02:37;99555.53;;;15.71
12126;BMP180;6126;57.908;16.490;2022-09-17T15:05:25;99545.16;;;15.69
12126;BMP180;6126;57.908;16.490;2022-09-17T15:08:23;99548.25;;;15.63
12126;BMP180;6126;57.908;16.490;2022-09-17T15:11:00;99551.97;;;15.61
12126;BMP180;6126;57.908;16.490;2022-09-17T15:13:30;99549.59;;;15.58
12126;BMP180;6126;57.908;16.490;2022-09-17T15:16:03;99560.38;;;15.55
12126;BMP180;6126;57.908;16.490;2022-09-17T15:18:38;99557.03;;;15.53
12126;BMP180;6126;57.908;16.490;2022-09-17T15:26:51;99559.66;;;15.53
12126;BMP180;6126;57.908;16.490;2022-09-17T15:29:25;99546.88;;;15.48
12126;BMP180;6126;57.908;16.490;2022-09-17T15:31:53;99550.72;;;15.44
12126;BMP180;6126;57.908;16.490;2022-09-17T15:34:19;99542.25;;;15.41
12126;BMP180;6126;57.908;16.490;2022-09-17T15:39:51;99548.94;;;15.34
12126;BMP180;6126;57.908;16.490;2022-09-17T15:42:25;99553.47;;;15.32
12126;BMP180;6126;57.908;16.490;2022-09-17T15:45:18;99546.72;;;15.30
12126;BMP180;6126;57.908;16.490;2022-09-17T15:47:55;99552.44;;;15.24
12126;BMP180;6126;57.908;16.490;2022-09-17T15:50:34;99552.22;;;15.16
12126;BMP180;6126;57.908;16.490;2022-09-17T15:53:12;99561.31;;;15.12
12126;BMP180;6126;57.908;16.490;2022-09-17T15:55:42;99562.41;;;15.10
12126;BMP180;6126;57.908;16.490;2022-09-17T15:58:28;99571.44;;;15.06
12126;BMP180;6126;57.908;16.490;2022-09-17T16:11:15;99579.22;;;14.85
12126;BMP180;6126;57.908;16.490;2022-09-17T16:13:41;99583.03;;;14.81
12126;BMP180;6126;57.908;16.490;2022-09-17T16:16:16;99584.94;;;14.79
12126;BMP180;6126;57.908;16.490;2022-09-17T16:18:42;99584.13;;;14.79
12126;BMP180;6126;57.908;16.490;2022-09-17T16:21:11;99598.34;;;14.77
12126;BMP180;6126;57.908;16.490;2022-09-17T16:23:37;99594.06;;;14.76
12126;BMP180;6126;57.908;16.490;2022-09-17T16:26:05;99595.94;;;14.74
12126;BMP180;6126;57.908;16.490;2022-09-17T16:28:32;99596.91;;;14.73
12126;BMP180;6126;57.908;16.490;2022-09-17T16:30:58;99598.81;;;14.71
12126;BMP180;6126;57.908;16.490;2022-09-17T16:33:24;99597.25;;;14.68
12126;BMP180;6126;57.908;16.490;2022-09-17T16:35:57;99597.38;;;14.67
12126;BMP180;6126;57.908;16.490;2022-09-17T16:38:24;99598.44;;;14.64
12126;BMP180;6126;57.908;16.490;2022-09-17T16:40:51;99611.47;;;14.66
12126;BMP180;6126;57.908;16.490;2022-09-17T16:43:17;99608.13;;;14.64
12126;BMP180;6126;57.908;16.490;2022-09-17T16:46:07;99603.94;;;14.61
12126;BMP180;6126;57.908;16.490;2022-09-17T16:48:35;99608.47;;;14.59
12126;BMP180;6126;57.908;16.490;2022-09-17T16:51:07;99617.66;;;14.54
12126;BMP180;6126;57.908;16.490;2022-09-17T16:53:33;99624.13;;;14.50
12126;BMP180;6126;57.908;16.490;2022-09-17T16:55:59;99622.41;;;14.49
12126;BMP180;6126;57.908;16.490;2022-09-17T16:58:25;99612.78;;;14.49
12126;BMP180;6126;57.908;16.490;2022-09-17T17:00:51;99621.59;;;14.48
12126;BMP180;6126;57.908;16.490;2022-09-17T17:03:17;99624.59;;;14.44
12126;BMP180;6126;57.908;16.490;2022-09-17T17:05:44;99624.31;;;14.36
12126;BMP180;6126;57.908;16.490;2022-09-17T17:08:09;99624.75;;;14.30
12126;BMP180;6126;57.908;16.490;2022-09-17T17:10:37;99630.47;;;14.24
12126;BMP180;6126;57.908;16.490;2022-09-17T17:13:04;99633.06;;;14.14
12126;BMP180;6126;57.908;16.490;2022-09-17T17:15:30;99632.81;;;14.06
12126;BMP180;6126;57.908;16.490;2022-09-17T17:17:56;99636.81;;;13.99
12126;BMP180;6126;57.908;16.490;2022-09-17T17:20:22;99648.69;;;13.92
12126;BMP180;6126;57.908;16.490;2022-09-17T17:22:48;99642.09;;;13.86
12126;BMP180;6126;57.908;16.490;2022-09-17T17:25:17;99644.09;;;13.83
12126;BMP180;6126;57.908;16.490;2022-09-17T17:27:43;99647.19;;;13.77
12126;BMP180;6126;57.908;16.490;2022-09-17T17:30:10;99639.88;;;13.70
12126;BMP180;6126;57.908;16.490;2022-09-17T17:32:42;99660.44;;;13.63
12126;BMP180;6126;57.908;16.490;2022-09-17T17:35:09;99665.22;;;13.58
12126;BMP180;6126;57.908;16.490;2022-09-17T17:37:35;99666.81;;;13.49
12126;BMP180;6126;57.908;16.490;2022-09-17T17:40:01;99669.22;;;13.39
12126;BMP180;6126;57.908;16.490;2022-09-17T17:42:33;99670.41;;;13.35
12126;BMP180;6126;57.908;16.490;2022-09-17T17:45:04;99678.38;;;13.34
12126;BMP180;6126;57.908;16.490;2022-09-17T17:47:31;99687.63;;;13.27
12126;BMP180;6126;57.908;16.490;2022-09-17T17:49:56;99688.25;;;13.18
12126;BMP180;6126;57.908;16.490;2022-09-17T17:52:22;99693.94;;;13.12
12126;BMP180;6126;57.908;16.490;2022-09-17T17:54:48;99684.06;;;13.03
12126;BMP180;6126;57.908;16.490;2022-09-17T17:57:15;99691.09;;;12.91
12126;BMP180;6126;57.908;16.490;2022-09-17T17:59:41;99678.84;;;12.79
12126;BMP180;6126;57.908;16.490;2022-09-17T18:02:08;99681.84;;;12.73
12126;BMP180;6126;57.908;16.490;2022-09-17T18:04:34;99692.50;;;12.70
12126;BMP180;6126;57.908;16.490;2022-09-17T18:07:00;99688.22;;;12.69
12126;BMP180;6126;57.908;16.490;2022-09-17T18:09:25;99686.34;;;12.71
12126;BMP180;6126;57.908;16.490;2022-09-17T18:11:51;99691.38;;;12.74
12126;BMP180;6126;57.908;16.490;2022-09-17T18:14:19;99700.03;;;12.76